Time;durP1;ratioP1;P1;durP2;ratioP2;P2;SDS_P1;SDS_P2;PMS_P1;PMS_P2;Temp;Humidity;BMP_temperature;BMP_pressure;BME280_temperature;BME280_humidity;BME280_pressure;Samples;Min_cycle;Max_cycle;Signal;HPM_P1;HPM_P2
2022/05/10 00:01:39;;;;;;;5.80;5.30;;;14.20;99.90;;;;;;5030388;28;20040;-82
2022/05/10 00:04:07;;;;;;;5.72;5.03;;;14.20;99.90;;;;;;5030358;28;20488;-82
2022/05/10 00:06:37;;;;;;;7.72;5.90;;;14.20;99.90;;;;;;4997220;28;20056;-82
2022/05/10 00:09:05;;;;;;;11.18;6.00;;;14.10;99.90;;;;;;5041120;28;20095;-82
2022/05/10 00:11:31;;;;;;;6.00;5.40;;;14.10;99.90;;;;;;5029422;28;20060;-82
2022/05/10 00:13:56;;;;;;;5.45;4.95;;;14.10;99.90;;;;;;5013695;28;20056;-82
2022/05/10 00:16:22;;;;;;;6.78;5.50;;;14.00;99.90;;;;;;5038193;28;20395;-82
2022/05/10 00:18:48;;;;;;;6.13;5.50;;;14.00;99.90;;;;;;5012709;28;20076;-82
2022/05/10 00:21:21;;;;;;;6.25;5.40;;;13.90;99.90;;;;;;5026533;28;20033;-82
2022/05/10 00:23:47;;;;;;;7.28;6.22;;;13.90;99.90;;;;;;5033415;28;20032;-82
2022/05/10 00:26:13;;;;;;;7.63;6.82;;;13.90;99.90;;;;;;5032563;28;20018;-82
2022/05/10 00:28:39;;;;;;;7.47;6.13;;;13.90;99.90;;;;;;5031673;28;20475;-82
2022/05/10 00:31:06;;;;;;;6.97;6.28;;;13.80;99.90;;;;;;5045501;28;20044;-81
2022/05/10 00:33:32;;;;;;;9.07;5.75;;;13.80;99.90;;;;;;5028325;28;20044;-81
2022/05/10 00:35:58;;;;;;;7.63;6.35;;;13.80;99.90;;;;;;5011987;28;20074;-82
2022/05/10 00:38:36;;;;;;;6.70;6.00;;;13.70;99.90;;;;;;5029033;28;20072;-82
2022/05/10 00:41:15;;;;;;;7.93;6.40;;;13.70;99.90;;;;;;5029327;28;20022;-82
2022/05/10 00:43:46;;;;;;;7.88;6.40;;;13.60;99.90;;;;;;5032665;28;20121;-82
2022/05/10 00:46:22;;;;;;;8.70;6.55;;;13.60;99.90;;;;;;5021489;28;20474;-82
2022/05/10 00:49:15;;;;;;;6.72;6.07;;;13.50;99.90;;;;;;5014795;28;20116;-82
2022/05/10 00:51:50;;;;;;;7.40;6.60;;;13.50;99.90;;;;;;5031321;28;20474;-82
2022/05/10 00:54:34;;;;;;;8.77;7.60;;;13.40;99.90;;;;;;5029362;28;20032;-82
2022/05/10 00:57:09;;;;;;;10.13;7.20;;;13.40;99.90;;;;;;5049077;28;20033;-82
2022/05/10 00:59:56;;;;;;;8.23;7.43;;;13.40;99.90;;;;;;5043266;28;20038;-82
2022/05/10 01:02:50;;;;;;;9.18;7.90;;;13.30;99.90;;;;;;5010803;28;20126;-82
2022/05/10 01:05:23;;;;;;;9.70;6.47;;;13.30;99.90;;;;;;5012773;28;20403;-82
2022/05/10 01:07:55;;;;;;;8.30;7.15;;;13.20;99.90;;;;;;5015070;28;20021;-82
2022/05/10 01:10:33;;;;;;;8.55;7.63;;;13.20;99.90;;;;;;5031927;28;20049;-82
2022/05/10 01:13:13;;;;;;;9.57;7.20;;;13.10;99.90;;;;;;5026824;28;20059;-82
2022/05/10 01:15:42;;;;;;;7.80;7.00;;;13.10;99.90;;;;;;5031720;28;20056;-82
2022/05/10 01:18:08;;;;;;;8.80;7.35;;;13.00;99.90;;;;;;5031676;28;20051;-82
2022/05/10 01:20:41;;;;;;;8.20;6.97;;;13.00;99.90;;;;;;5048427;28;20112;-82
2022/05/10 01:23:28;;;;;;;7.43;6.65;;;13.00;99.90;;;;;;5041440;28;20443;-82
2022/05/10 01:26:04;;;;;;;9.63;7.70;;;13.00;99.90;;;;;;5042480;28;20033;-81
2022/05/10 01:28:47;;;;;;;8.60;7.22;;;12.90;99.90;;;;;;5030812;28;20082;-82
2022/05/10 01:31:21;;;;;;;10.07;6.70;;;12.90;99.90;;;;;;5041950;28;20096;-82
2022/05/10 01:33:54;;;;;;;9.15;7.68;;;12.80;99.90;;;;;;5029977;28;20533;-81
2022/05/10 01:36:26;;;;;;;7.78;6.95;;;12.80;99.90;;;;;;5033454;28;20079;-81
2022/05/10 01:39:09;;;;;;;7.85;7.03;;;12.80;99.90;;;;;;5062706;28;20040;-82
2022/05/10 01:41:46;;;;;;;8.77;6.82;;;12.80;99.90;;;;;;5030759;28;20033;-82
2022/05/10 01:44:34;;;;;;;7.50;6.70;;;12.80;99.90;;;;;;5043748;28;20488;-82
2022/05/10 01:47:08;;;;;;;8.63;7.25;;;12.70;99.90;;;;;;5023668;28;20044;-82
2022/05/10 01:49:45;;;;;;;8.80;7.15;;;12.70;99.90;;;;;;5044221;28;20087;-82
2022/05/10 01:52:24;;;;;;;11.07;7.30;;;12.70;99.90;;;;;;5028256;28;20037;-81
2022/05/10 01:55:00;;;;;;;9.00;7.30;;;12.60;99.90;;;;;;5036539;28;20039;-83
2022/05/10 01:57:29;;;;;;;9.50;6.57;;;12.60;99.90;;;;;;5039994;28;20494;-82
2022/05/10 02:00:22;;;;;;;11.88;7.38;;;12.50;99.90;;;;;;5023975;28;20033;-82
2022/05/10 02:03:03;;;;;;;9.70;7.57;;;12.50;99.90;;;;;;5039775;28;20542;-82
2022/05/10 02:05:39;;;;;;;8.93;7.50;;;12.40;99.90;;;;;;5030131;28;20737;-82
2022/05/10 02:08:27;;;;;;;9.50;6.93;;;12.40;99.90;;;;;;5039549;28;20038;-82
2022/05/10 02:10:56;;;;;;;8.10;7.30;;;12.40;99.90;;;;;;5061997;22;20041;-84
2022/05/10 02:13:36;;;;;;;10.40;7.22;;;12.30;99.90;;;;;;5029101;28;20036;-83
2022/05/10 02:16:25;;;;;;;9.02;7.63;;;12.30;99.90;;;;;;5047417;28;20067;-84
2022/05/10 02:18:59;;;;;;;8.07;6.97;;;12.20;99.90;;;;;;5017204;28;20041;-85
2022/05/10 02:21:32;;;;;;;10.02;7.10;;;12.20;99.90;;;;;;5048313;28;20037;-85
2022/05/10 02:24:02;;;;;;;8.25;7.35;;;12.20;99.90;;;;;;5047777;28;20029;-84
2022/05/10 02:26:39;;;;;;;8.50;7.60;;;12.20;99.90;;;;;;5030919;28;20099;-84
2022/05/10 02:29:46;;;;;;;8.38;7.47;;;12.10;99.90;;;;;;5027669;28;20506;-85
2022/05/10 02:35:18;;;;;;;10.82;7.32;;;12.10;99.90;;;;;;5043908;28;20057;-83
2022/05/10 02:37:44;;;;;;;10.70;8.27;;;12.10;99.90;;;;;;5034996;28;20104;-83
2022/05/10 02:40:11;;;;;;;10.07;7.90;;;12.00;99.90;;;;;;5002058;28;20120;-85
2022/05/10 02:42:38;;;;;;;8.30;7.38;;;12.00;99.90;;;;;;5034485;28;20026;-84
2022/05/10 02:45:07;;;;;;;8.75;7.15;;;12.00;99.90;;;;;;5034725;28;20091;-84
2022/05/10 02:47:36;;;;;;;8.68;7.40;;;11.90;99.90;;;;;;5034135;28;20032;-84
2022/05/10 02:50:08;;;;;;;8.90;7.57;;;11.90;99.90;;;;;;5019191;28;20036;-84
2022/05/10 02:52:33;;;;;;;9.93;8.20;;;11.80;99.90;;;;;;5022003;28;20064;-84
2022/05/10 02:55:08;;;;;;;11.15;8.55;;;11.80;99.90;;;;;;5030614;28;20139;-84
2022/05/10 02:57:34;;;;;;;8.18;7.28;;;11.70;99.90;;;;;;5034173;28;20033;-84
2022/05/10 03:00:02;;;;;;;10.32;8.32;;;11.70;99.90;;;;;;5023462;28;20041;-84
2022/05/10 03:02:31;;;;;;;9.82;8.00;;;11.70;99.90;;;;;;5051863;28;20080;-84
2022/05/10 03:04:58;;;;;;;9.43;7.82;;;11.70;99.90;;;;;;5051686;28;20071;-83
2022/05/10 03:07:26;;;;;;;9.43;7.32;;;11.70;99.90;;;;;;5050134;28;20025;-85
2022/05/10 03:09:52;;;;;;;8.88;7.40;;;11.70;99.90;;;;;;5014516;28;20037;-84
2022/05/10 03:12:18;;;;;;;9.48;7.72;;;11.70;99.90;;;;;;5016234;28;20048;-84
2022/05/10 03:14:45;;;;;;;8.25;6.82;;;11.70;99.90;;;;;;5050752;28;20028;-84
2022/05/10 03:17:12;;;;;;;8.70;7.35;;;11.70;99.90;;;;;;5034148;28;20501;-84
2022/05/10 03:19:39;;;;;;;9.30;7.47;;;11.70;99.90;;;;;;5034493;28;20380;-83
2022/05/10 03:22:05;;;;;;;8.25;7.03;;;11.60;99.90;;;;;;5050918;28;20033;-84
2022/05/10 03:24:31;;;;;;;9.75;7.50;;;11.50;99.90;;;;;;5037763;28;20037;-84
2022/05/10 03:26:58;;;;;;;10.75;7.70;;;11.50;99.90;;;;;;5017748;28;20078;-85
2022/05/10 03:29:25;;;;;;;9.32;7.28;;;11.40;99.90;;;;;;5033894;28;20133;-84
2022/05/10 03:31:54;;;;;;;9.52;7.25;;;11.40;99.90;;;;;;5018464;28;20430;-84
2022/05/10 03:37:04;;;;;;;7.53;6.68;;;11.50;99.90;;;;;;5043727;28;20037;-82
2022/05/10 03:39:30;;;;;;;6.70;6.03;;;11.50;99.90;;;;;;5033829;28;20032;-84
2022/05/10 03:41:56;;;;;;;6.88;6.18;;;11.50;99.90;;;;;;5034248;28;20044;-84
2022/05/10 03:44:22;;;;;;;6.65;5.63;;;11.40;99.90;;;;;;5032075;28;20044;-84
2022/05/10 03:46:49;;;;;;;8.27;6.70;;;11.50;99.90;;;;;;5031467;28;20041;-83
2022/05/10 03:49:15;;;;;;;7.50;6.15;;;11.40;99.90;;;;;;5033447;28;20037;-82
2022/05/10 03:51:40;;;;;;;7.57;6.57;;;11.40;99.90;;;;;;5033311;28;20033;-82
2022/05/10 03:54:06;;;;;;;8.45;6.88;;;11.40;99.90;;;;;;5033889;28;20451;-85
2022/05/10 03:56:34;;;;;;;7.25;6.47;;;11.40;99.90;;;;;;5033454;28;20144;-84
2022/05/10 03:59:00;;;;;;;9.45;7.53;;;11.30;99.90;;;;;;5001342;28;20029;-84
2022/05/10 04:01:27;;;;;;;12.98;8.50;;;11.20;99.90;;;;;;5030521;28;20091;-84
2022/05/10 04:03:53;;;;;;;10.07;8.35;;;11.20;99.90;;;;;;5030696;28;20029;-84
2022/05/10 04:06:19;;;;;;;9.27;7.28;;;11.20;99.90;;;;;;4999833;28;20040;-84
2022/05/10 04:08:45;;;;;;;8.85;7.10;;;11.20;99.90;;;;;;5013316;28;20116;-84
2022/05/10 04:11:12;;;;;;;11.98;7.78;;;11.20;99.90;;;;;;5033321;28;20036;-84
2022/05/10 04:13:39;;;;;;;9.75;7.18;;;11.10;99.90;;;;;;5032990;28;20041;-84
2022/05/10 04:16:06;;;;;;;9.50;7.38;;;11.20;99.90;;;;;;5008702;28;20860;-83
2022/05/10 04:18:32;;;;;;;9.15;7.78;;;11.20;99.90;;;;;;5016630;28;20140;-83
2022/05/10 04:20:58;;;;;;;8.57;7.63;;;11.20;99.90;;;;;;5033937;28;20094;-83
2022/05/10 04:23:24;;;;;;;9.85;8.07;;;11.30;99.90;;;;;;5049311;28;20177;-84
2022/05/10 04:25:50;;;;;;;9.90;7.93;;;11.30;99.90;;;;;;5062791;28;20057;-84
2022/05/10 04:28:17;;;;;;;10.20;7.75;;;11.30;99.90;;;;;;5033127;28;20013;-83
2022/05/10 04:30:42;;;;;;;10.15;7.85;;;11.40;99.90;;;;;;5014342;28;20492;-84
2022/05/10 04:33:08;;;;;;;9.02;7.75;;;11.40;99.90;;;;;;5000114;28;20075;-83
2022/05/10 04:35:34;;;;;;;8.27;7.35;;;11.50;99.90;;;;;;5032201;28;20033;-84
2022/05/10 04:38:04;;;;;;;12.90;8.18;;;11.50;99.90;;;;;;5015978;28;20044;-84
2022/05/10 04:43:16;;;;;;;29.95;17.63;;;11.70;99.90;;;;;;5046445;28;20041;-84
2022/05/10 04:45:44;;;;;;;14.77;10.50;;;11.70;99.90;;;;;;5039620;28;20022;-84
2022/05/10 04:48:12;;;;;;;7.97;6.72;;;11.80;99.90;;;;;;5050137;28;20151;-85
2022/05/10 04:50:38;;;;;;;7.32;6.57;;;11.90;99.90;;;;;;5001461;28;20491;-84
2022/05/10 04:53:04;;;;;;;9.48;6.93;;;12.00;99.90;;;;;;5033545;28;20032;-84
2022/05/10 04:55:29;;;;;;;8.57;7.15;;;12.00;99.90;;;;;;5019785;28;20049;-84
2022/05/10 04:57:55;;;;;;;14.27;10.50;;;12.00;99.90;;;;;;5029976;28;20566;-83
2022/05/10 05:00:23;;;;;;;19.60;11.30;;;12.10;99.90;;;;;;5029234;28;20060;-84
2022/05/10 05:02:49;;;;;;;12.20;8.48;;;12.20;99.90;;;;;;5016954;28;20033;-85
2022/05/10 05:05:15;;;;;;;9.63;8.23;;;12.20;99.90;;;;;;5031643;28;20029;-85
2022/05/10 05:07:41;;;;;;;9.05;7.88;;;12.30;99.90;;;;;;5047637;28;20032;-83
2022/05/10 05:10:07;;;;;;;9.73;7.97;;;12.40;99.90;;;;;;5000431;28;20098;-84
2022/05/10 05:12:33;;;;;;;11.82;8.60;;;12.40;99.90;;;;;;5031286;28;20051;-82
2022/05/10 05:15:00;;;;;;;7.93;7.13;;;12.50;99.90;;;;;;5021489;28;20037;-84
2022/05/10 05:17:28;;;;;;;10.75;8.65;;;12.60;99.90;;;;;;5032032;28;20033;-82
2022/05/10 05:19:54;;;;;;;10.90;8.25;;;12.60;99.90;;;;;;5030655;28;20124;-82
2022/05/10 05:22:19;;;;;;;10.48;7.95;;;12.80;99.90;;;;;;5031722;28;20141;-84
2022/05/10 05:24:45;;;;;;;8.68;7.47;;;12.90;99.90;;;;;;5000107;28;20154;-83
2022/05/10 05:27:11;;;;;;;9.88;8.32;;;13.10;99.90;;;;;;5031937;28;20025;-84
2022/05/10 05:29:36;;;;;;;8.93;7.00;;;13.30;99.90;;;;;;5032094;28;20466;-84
2022/05/10 05:32:07;;;;;;;9.15;7.57;;;13.60;99.90;;;;;;5016329;28;20057;-84
2022/05/10 05:34:35;;;;;;;8.85;7.65;;;13.90;99.90;;;;;;5048567;28;20025;-84
2022/05/10 05:39:45;;;;;;;12.52;8.13;;;14.60;99.90;;;;;;5048991;28;20045;-84
2022/05/10 05:42:11;;;;;;;7.63;6.72;;;14.80;99.90;;;;;;5032595;28;20036;-84
2022/05/10 05:44:37;;;;;;;10.13;8.00;;;15.00;99.90;;;;;;5047094;28;20032;-84
2022/05/10 05:47:02;;;;;;;12.15;7.90;;;15.30;99.90;;;;;;5026420;28;20032;-83
2022/05/10 05:49:28;;;;;;;10.57;7.47;;;15.60;99.90;;;;;;4997110;28;20049;-84
2022/05/10 05:51:59;;;;;;;22.83;12.05;;;15.80;99.90;;;;;;5045506;28;20029;-84
2022/05/10 05:54:25;;;;;;;12.50;8.35;;;16.10;99.90;;;;;;5047161;28;20029;-84
2022/05/10 05:56:59;;;;;;;7.75;6.85;;;16.50;99.90;;;;;;5013850;28;20063;-82
2022/05/10 05:59:25;;;;;;;55.50;28.05;;;16.70;99.90;;;;;;5031461;28;20199;-83
2022/05/10 06:01:50;;;;;;;9.02;6.93;;;16.90;99.90;;;;;;4996542;28;20501;-85
2022/05/10 06:04:16;;;;;;;8.10;6.18;;;17.20;99.90;;;;;;5018207;28;20029;-84
2022/05/10 06:06:42;;;;;;;9.38;7.45;;;17.40;99.90;;;;;;5043858;28;20103;-84
2022/05/10 06:09:07;;;;;;;10.65;6.50;;;17.50;99.90;;;;;;4997490;28;20037;-84
2022/05/10 06:11:33;;;;;;;7.05;6.28;;;17.70;99.90;;;;;;5030066;28;20071;-82
2022/05/10 06:14:01;;;;;;;8.32;6.50;;;17.80;99.90;;;;;;5022923;28;20025;-83
2022/05/10 06:16:27;;;;;;;7.57;6.35;;;18.00;99.90;;;;;;5014960;28;20547;-84
2022/05/10 06:18:52;;;;;;;7.55;6.30;;;18.10;99.90;;;;;;5015112;28;20040;-83
2022/05/10 06:21:18;;;;;;;7.20;6.25;;;18.40;99.90;;;;;;5000305;28;20037;-84
2022/05/10 06:23:43;;;;;;;8.48;6.28;;;18.60;99.90;;;;;;4996628;28;20037;-82
2022/05/10 06:26:09;;;;;;;9.65;6.65;;;19.00;99.90;;;;;;5030664;28;20481;-84
2022/05/10 06:28:35;;;;;;;7.43;6.70;;;19.20;99.50;;;;;;5007710;28;20437;-84
2022/05/10 06:31:04;;;;;;;6.72;6.03;;;19.40;98.10;;;;;;5041226;28;20467;-84
2022/05/10 06:33:30;;;;;;;7.30;6.60;;;19.30;97.60;;;;;;5015394;28;20406;-82
2022/05/10 06:35:55;;;;;;;10.85;6.90;;;19.50;97.00;;;;;;5021905;28;20120;-84
2022/05/10 06:38:28;;;;;;;7.35;6.18;;;19.30;96.30;;;;;;4998765;28;20086;-83
2022/05/10 06:40:55;;;;;;;8.13;6.40;;;19.50;97.20;;;;;;5015765;28;20037;-85
2022/05/10 06:43:22;;;;;;;7.40;6.45;;;19.80;96.80;;;;;;5016176;28;20394;-84
2022/05/10 06:45:50;;;;;;;9.93;7.65;;;20.00;96.70;;;;;;5030717;28;20033;-85
2022/05/10 06:48:16;;;;;;;7.72;6.78;;;20.50;97.20;;;;;;5014486;28;20033;-84
2022/05/10 06:50:43;;;;;;;9.32;5.55;;;20.90;94.90;;;;;;5047988;28;20025;-84
2022/05/10 06:53:10;;;;;;;6.82;6.13;;;21.20;93.10;;;;;;5013272;28;20423;-83
2022/05/10 06:55:38;;;;;;;7.15;6.25;;;21.50;93.30;;;;;;5029383;28;20043;-84
2022/05/10 06:58:05;;;;;;;6.75;6.05;;;21.70;91.00;;;;;;5030580;28;20092;-83
2022/05/10 07:00:36;;;;;;;6.22;5.63;;;21.70;90.00;;;;;;5030969;28;20035;-83
2022/05/10 07:03:16;;;;;;;7.95;6.13;;;21.80;90.60;;;;;;5038715;28;20033;-84
2022/05/10 07:05:45;;;;;;;7.25;6.10;;;21.90;88.00;;;;;;5029913;28;20021;-84
2022/05/10 07:08:11;;;;;;;6.72;6.03;;;21.90;88.30;;;;;;5046906;28;20029;-84
2022/05/10 07:10:37;;;;;;;6.47;5.65;;;21.90;89.10;;;;;;5018422;28;20527;-84
2022/05/10 07:13:02;;;;;;;9.00;6.28;;;21.90;87.70;;;;;;5046047;28;20029;-85
2022/05/10 07:15:28;;;;;;;6.97;6.25;;;21.70;88.40;;;;;;5013675;28;20498;-84
2022/05/10 07:17:54;;;;;;;7.47;6.00;;;21.70;88.80;;;;;;5042465;28;20041;-84
2022/05/10 07:20:20;;;;;;;8.85;5.90;;;21.60;87.90;;;;;;5030613;28;20039;-84
2022/05/10 07:22:47;;;;;;;6.97;6.07;;;21.90;86.80;;;;;;5048646;28;20033;-84
2022/05/10 07:25:19;;;;;;;7.70;5.60;;;22.10;86.70;;;;;;5030788;28;20040;-85
2022/05/10 07:27:45;;;;;;;9.43;6.22;;;22.40;86.70;;;;;;5034174;28;20091;-84
2022/05/10 07:30:12;;;;;;;7.18;6.03;;;22.60;83.10;;;;;;5018871;28;20079;-85
2022/05/10 07:32:38;;;;;;;6.88;6.18;;;22.40;84.80;;;;;;5048280;28;20064;-84
2022/05/10 07:35:05;;;;;;;7.65;6.28;;;22.60;83.00;;;;;;5031606;28;20064;-85
2022/05/10 07:37:33;;;;;;;8.00;6.35;;;22.70;83.30;;;;;;5013700;28;20618;-84
2022/05/10 07:40:00;;;;;;;6.97;6.28;;;22.80;83.90;;;;;;5047646;28;20040;-84
2022/05/10 07:42:26;;;;;;;6.50;5.90;;;22.90;80.90;;;;;;5014685;28;20044;-83
2022/05/10 07:44:52;;;;;;;6.80;6.10;;;23.20;82.20;;;;;;5033585;28;20029;-85
2022/05/10 07:47:18;;;;;;;6.80;5.75;;;23.00;82.80;;;;;;5016362;28;20033;-85
2022/05/10 07:49:44;;;;;;;7.40;5.32;;;23.30;79.80;;;;;;5050164;28;20075;-84
2022/05/10 07:52:09;;;;;;;7.82;6.47;;;23.60;81.00;;;;;;5049421;28;20028;-84
2022/05/10 07:54:36;;;;;;;7.53;6.20;;;23.60;78.50;;;;;;5050255;28;20041;-85
2022/05/10 07:57:03;;;;;;;6.68;6.05;;;23.70;79.20;;;;;;5033380;28;20025;-85
2022/05/10 07:59:31;;;;;;;6.93;6.22;;;23.70;76.30;;;;;;5001046;28;20033;-85
2022/05/10 08:01:58;;;;;;;9.18;5.68;;;23.30;76.30;;;;;;5015342;28;20037;-85
2022/05/10 08:04:25;;;;;;;8.50;6.20;;;23.10;73.90;;;;;;5029125;28;20059;-84
2022/05/10 08:06:52;;;;;;;9.40;6.55;;;22.90;79.50;;;;;;5013709;28;20048;-85
2022/05/10 08:09:19;;;;;;;7.75;6.22;;;22.80;78.20;;;;;;5026718;28;20463;-84
2022/05/10 08:11:46;;;;;;;7.20;5.97;;;22.70;77.70;;;;;;5013342;28;20053;-83
2022/05/10 08:14:12;;;;;;;7.78;6.15;;;22.70;80.10;;;;;;5028927;28;20026;-85
2022/05/10 08:16:38;;;;;;;7.30;6.53;;;22.30;77.90;;;;;;5029779;28;20033;-84
2022/05/10 08:19:04;;;;;;;7.13;6.43;;;22.40;78.30;;;;;;5032732;28;20104;-85
2022/05/10 08:21:30;;;;;;;6.47;5.25;;;22.40;80.70;;;;;;5033436;28;20025;-84
2022/05/10 08:23:56;;;;;;;6.70;6.00;;;22.50;83.40;;;;;;5033589;28;20037;-84
2022/05/10 08:26:23;;;;;;;8.10;5.95;;;22.40;78.20;;;;;;5031600;28;20029;-83
2022/05/10 08:28:49;;;;;;;6.25;5.35;;;22.40;77.60;;;;;;5047321;28;20552;-85
2022/05/10 08:31:15;;;;;;;6.90;6.30;;;22.30;77.00;;;;;;5031630;28;20037;-84
2022/05/10 08:33:43;;;;;;;5.85;5.25;;;22.10;76.30;;;;;;5004170;28;20045;-84
2022/05/10 08:36:09;;;;;;;5.43;4.93;;;22.00;77.10;;;;;;5046395;28;20088;-84
2022/05/10 08:38:35;;;;;;;6.40;5.57;;;21.90;76.90;;;;;;5029363;28;20029;-85
2022/05/10 08:41:04;;;;;;;5.75;5.18;;;21.90;79.90;;;;;;5029908;28;20040;-85
2022/05/10 08:43:44;;;;;;;8.07;5.30;;;21.90;79.60;;;;;;5046424;28;20021;-85
2022/05/10 08:46:16;;;;;;;5.63;5.10;;;22.00;78.80;;;;;;5031157;28;20128;-84
2022/05/10 08:48:45;;;;;;;6.00;4.55;;;22.10;75.30;;;;;;5048873;28;20043;-84
2022/05/10 08:51:12;;;;;;;4.65;4.25;;;22.10;75.20;;;;;;5032896;28;20025;-84
2022/05/10 08:53:38;;;;;;;4.93;4.40;;;22.20;78.50;;;;;;5032899;28;20493;-84
2022/05/10 08:56:24;;;;;;;5.03;4.40;;;22.30;75.30;;;;;;5049074;28;20020;-84
2022/05/10 08:59:28;;;;;;;5.15;4.65;;;22.30;73.50;;;;;;5032551;28;20461;-85
2022/05/10 09:02:04;;;;;;;4.47;4.07;;;22.10;72.30;;;;;;5029109;28;20033;-83
2022/05/10 09:04:38;;;;;;;5.32;4.68;;;22.10;75.90;;;;;;5030999;28;20064;-84
2022/05/10 09:07:44;;;;;;;5.05;4.65;;;22.10;77.20;;;;;;5031880;28;20043;-85
2022/05/10 09:10:22;;;;;;;5.13;4.18;;;22.30;76.80;;;;;;5036947;28;20033;-84
2022/05/10 09:13:10;;;;;;;5.65;5.15;;;22.30;70.40;;;;;;5016243;28;20415;-85
2022/05/10 09:15:44;;;;;;;5.65;4.78;;;22.30;71.50;;;;;;5031274;28;20557;-84
2022/05/10 09:18:29;;;;;;;5.25;4.60;;;22.30;72.80;;;;;;5058717;28;20036;-85
2022/05/10 09:21:23;;;;;;;5.95;5.22;;;22.20;71.40;;;;;;5012641;28;20508;-85
2022/05/10 09:24:07;;;;;;;5.18;4.30;;;22.20;71.30;;;;;;5045031;28;20471;-84
2022/05/10 09:26:39;;;;;;;5.78;4.07;;;22.30;71.00;;;;;;5028426;28;20053;-84
2022/05/10 09:29:27;;;;;;;4.78;4.30;;;22.30;67.40;;;;;;5028709;28;20033;-85
2022/05/10 09:34:47;;;;;;;5.05;4.28;;;22.50;72.00;;;;;;5034668;28;20044;-85
2022/05/10 09:37:33;;;;;;;4.80;4.32;;;22.60;72.00;;;;;;5030142;28;20491;-85
2022/05/10 09:40:32;;;;;;;6.00;4.97;;;22.50;70.30;;;;;;5044923;28;20025;-84
2022/05/10 09:43:18;;;;;;;4.38;4.00;;;22.50;73.20;;;;;;5026014;28;20037;-84
2022/05/10 09:45:45;;;;;;;4.07;3.78;;;22.50;69.50;;;;;;5040900;28;20029;-84
2022/05/10 09:48:17;;;;;;;5.13;4.22;;;22.60;72.80;;;;;;5047779;28;20068;-84
2022/05/10 09:50:45;;;;;;;4.75;4.35;;;22.80;73.90;;;;;;5049766;28;20029;-83
2022/05/10 09:53:18;;;;;;;4.97;4.53;;;23.00;74.30;;;;;;5031865;28;20033;-83
2022/05/10 09:56:05;;;;;;;5.97;3.83;;;23.20;70.50;;;;;;5031363;28;20033;-84
2022/05/10 09:58:36;;;;;;;7.35;4.15;;;23.30;72.10;;;;;;5047024;28;20128;-84
2022/05/10 10:01:10;;;;;;;4.65;4.25;;;23.40;75.50;;;;;;5051798;28;20048;-84
2022/05/10 10:03:45;;;;;;;4.05;3.63;;;23.60;74.00;;;;;;5022751;28;20120;-84
2022/05/10 10:06:17;;;;;;;5.72;4.03;;;23.70;71.10;;;;;;5033680;28;20072;-84
2022/05/10 10:09:04;;;;;;;4.28;3.97;;;23.70;66.10;;;;;;5029803;28;20063;-84
2022/05/10 10:11:32;;;;;;;;;;;23.50;69.10;;;;;;5050123;28;20048;-83
2022/05/10 10:14:06;;;;;;;3.90;3.38;;;23.50;65.70;;;;;;5049250;28;19913;-83
2022/05/10 10:16:53;;;;;;;3.55;3.25;;;23.40;66.00;;;;;;5015965;28;20041;-84
2022/05/10 10:19:18;;;;;;;4.18;3.78;;;23.40;70.60;;;;;;5047702;28;20167;-81
2022/05/10 10:21:49;;;;;;;4.45;4.05;;;23.50;66.60;;;;;;5031269;28;20068;-83
2022/05/10 10:24:29;;;;;;;3.72;3.42;;;23.60;63.00;;;;;;5047939;28;20073;-84
2022/05/10 10:27:03;;;;;;;5.00;3.53;;;23.60;66.10;;;;;;5046920;28;20422;-85
2022/05/10 10:29:32;;;;;;;4.73;3.47;;;23.60;68.20;;;;;;5014738;28;20166;-83
2022/05/10 10:32:06;;;;;;;5.45;3.88;;;23.60;62.40;;;;;;5031290;28;20120;-84
2022/05/10 10:34:38;;;;;;;6.30;3.60;;;23.60;65.10;;;;;;5033438;28;20057;-84
2022/05/10 10:37:05;;;;;;;5.47;4.88;;;23.60;63.10;;;;;;5045092;28;20432;-84
2022/05/10 10:39:43;;;;;;;3.63;3.22;;;23.60;70.80;;;;;;5039517;28;20057;-83
2022/05/10 10:42:23;;;;;;;4.20;3.80;;;23.60;62.70;;;;;;5041099;28;20410;-83
2022/05/10 10:44:56;;;;;;;7.53;3.55;;;23.70;67.40;;;;;;5018720;28;20029;-84
2022/05/10 10:47:36;;;;;;;4.32;3.72;;;23.70;64.30;;;;;;5027619;28;20076;-84
2022/05/10 10:50:13;;;;;;;3.92;3.53;;;23.60;63.00;;;;;;5043518;28;20045;-84
2022/05/10 10:52:39;;;;;;;4.10;3.40;;;23.60;65.20;;;;;;5047536;28;20037;-84
2022/05/10 10:55:08;;;;;;;6.68;4.00;;;23.60;61.20;;;;;;5027446;28;20498;-84
2022/05/10 10:57:56;;;;;;;3.95;3.53;;;23.60;64.90;;;;;;5049030;28;20041;-83
2022/05/10 11:00:45;;;;;;;4.25;3.90;;;23.40;61.40;;;;;;5032147;28;20106;-85
2022/05/10 11:03:19;;;;;;;3.47;3.05;;;23.50;69.40;;;;;;5047414;28;20087;-85
2022/05/10 11:05:58;;;;;;;4.00;3.38;;;23.60;67.50;;;;;;5033121;28;20036;-81
2022/05/10 11:08:47;;;;;;;3.85;3.47;;;23.70;67.60;;;;;;5044923;28;20017;-82
2022/05/10 11:11:20;;;;;;;4.85;3.58;;;23.90;65.00;;;;;;5047896;28;20052;-84
2022/05/10 11:13:49;;;;;;;3.42;3.00;;;23.90;63.40;;;;;;5050880;28;20040;-83
2022/05/10 11:16:26;;;;;;;3.63;2.85;;;24.10;63.40;;;;;;5030432;28;20030;-82
2022/05/10 11:19:24;;;;;;;3.28;2.95;;;24.10;63.30;;;;;;5048189;28;20040;-83
2022/05/10 11:22:15;;;;;;;3.30;3.00;;;24.20;60.50;;;;;;5034835;28;20048;-83
2022/05/10 11:24:43;;;;;;;4.32;2.92;;;24.40;63.60;;;;;;5046908;28;20064;-82
2022/05/10 11:27:24;;;;;;;3.65;3.13;;;24.40;56.20;;;;;;5033694;28;20022;-83
2022/05/10 11:30:12;;;;;;;3.20;2.80;;;24.60;59.30;;;;;;5047143;28;20053;-82
2022/05/10 11:32:50;;;;;;;3.65;3.35;;;24.70;60.40;;;;;;5031086;28;20522;-81
2022/05/10 11:35:35;;;;;;;3.25;2.95;;;24.60;57.60;;;;;;5063241;28;20060;-84
2022/05/10 11:38:30;;;;;;;3.15;2.83;;;24.60;60.30;;;;;;5033774;28;20036;-85
2022/05/10 11:41:15;;;;;;;3.55;3.25;;;24.60;57.20;;;;;;5050716;28;20028;-83
2022/05/10 11:44:07;;;;;;;3.10;2.80;;;24.70;56.10;;;;;;5031078;28;20034;-82
2022/05/10 11:46:57;;;;;;;3.30;3.00;;;24.90;58.90;;;;;;5018180;28;20068;-83
2022/05/10 11:49:29;;;;;;;3.50;3.20;;;25.00;57.10;;;;;;5029333;28;20021;-82
2022/05/10 11:52:05;;;;;;;3.53;3.10;;;24.90;58.20;;;;;;5051164;28;20029;-83
2022/05/10 11:54:58;;;;;;;3.17;2.90;;;25.00;61.00;;;;;;5034124;28;20484;-83
2022/05/10 11:57:25;;;;;;;4.85;2.90;;;25.20;57.20;;;;;;5045314;28;20582;-83
2022/05/10 11:59:52;;;;;;;3.13;2.83;;;25.30;55.30;;;;;;5042600;28;20484;-83
2022/05/10 12:02:29;;;;;;;2.90;2.70;;;25.60;56.70;;;;;;5034102;28;20064;-83
2022/05/10 12:05:10;;;;;;;2.80;2.58;;;25.80;57.60;;;;;;5033987;28;20032;-83
2022/05/10 12:07:56;;;;;;;2.67;2.47;;;26.20;54.70;;;;;;5055187;28;20079;-83
2022/05/10 12:10:22;;;;;;;5.57;2.33;;;26.40;51.90;;;;;;5041092;28;20017;-84
2022/05/10 12:12:47;;;;;;;3.55;2.60;;;26.50;52.20;;;;;;5033081;28;20395;-84
2022/05/10 12:21:19;;;;;;;5.43;2.80;;;26.90;53.90;;;;;;5030844;28;20060;-81
2022/05/10 12:24:26;;;;;;;2.60;2.40;;;26.90;51.70;;;;;;5030421;28;20417;-82
2022/05/10 12:26:55;;;;;;;4.45;2.78;;;26.80;47.20;;;;;;5027668;28;20033;-82
2022/05/10 12:29:38;;;;;;;2.63;2.42;;;26.80;54.80;;;;;;5016791;28;20114;-82
2022/05/10 12:32:23;;;;;;;2.88;2.53;;;26.70;49.30;;;;;;5025699;28;20037;-82
2022/05/10 12:34:52;;;;;;;3.38;2.72;;;26.70;50.90;;;;;;5014581;28;20030;-84
2022/05/10 12:37:33;;;;;;;2.97;2.78;;;26.50;50.20;;;;;;5043996;28;20560;-82
2022/05/10 12:40:19;;;;;;;3.17;2.60;;;26.40;53.60;;;;;;5031980;28;20041;-82
2022/05/10 12:43:19;;;;;;;4.57;2.90;;;26.20;52.20;;;;;;5032109;28;20029;-83
2022/05/10 12:46:32;;;;;;;2.67;2.40;;;26.20;55.20;;;;;;5046750;28;20021;-82
2022/05/10 12:49:19;;;;;;;2.67;2.47;;;26.30;53.70;;;;;;5035451;28;20037;-86
2022/05/10 12:52:00;;;;;;;2.80;2.60;;;26.40;50.80;;;;;;5026799;28;20056;-83
2022/05/10 12:54:37;;;;;;;3.80;2.50;;;26.10;50.50;;;;;;5047048;28;20029;-83
2022/05/10 12:57:08;;;;;;;4.03;2.55;;;26.20;52.10;;;;;;5047725;28;20049;-81
2022/05/10 12:59:54;;;;;;;3.20;3.00;;;26.10;51.50;;;;;;5029889;28;20037;-83
2022/05/10 13:02:21;;;;;;;4.05;3.00;;;26.10;53.20;;;;;;5017360;28;20036;-82
2022/05/10 13:04:52;;;;;;;2.80;2.60;;;26.10;52.50;;;;;;5049159;28;20029;-84
2022/05/10 13:08:05;;;;;;;3.80;3.13;;;26.00;48.30;;;;;;5029073;28;20056;-85
2022/05/10 13:10:34;;;;;;;3.10;2.90;;;26.00;53.40;;;;;;5029951;28;20029;-85
2022/05/10 13:13:15;;;;;;;4.43;3.08;;;26.00;55.50;;;;;;5016507;28;20165;-84
2022/05/10 13:15:46;;;;;;;4.32;2.65;;;26.10;52.40;;;;;;5032840;28;20073;-84
2022/05/10 13:18:20;;;;;;;3.05;2.75;;;26.10;52.30;;;;;;5014274;28;20498;-85
2022/05/10 13:20:51;;;;;;;2.70;2.50;;;26.20;47.20;;;;;;5031946;28;20040;-82
2022/05/10 13:23:19;;;;;;;2.63;2.42;;;26.30;52.70;;;;;;5032783;28;20037;-84
2022/05/10 13:25:46;;;;;;;3.35;2.55;;;26.50;52.00;;;;;;5048919;28;20365;-84
2022/05/10 13:28:21;;;;;;;2.85;2.65;;;26.60;50.00;;;;;;5049543;28;20087;-85
2022/05/10 13:30:58;;;;;;;2.63;2.42;;;26.60;48.50;;;;;;5032777;28;20036;-83
2022/05/10 13:33:33;;;;;;;3.53;2.88;;;26.50;49.70;;;;;;5032131;28;20036;-83